USSS 271030Z 27007MPS CAVOK 02/M16 Q1034 R26L/81//50 NOSIG RMK QFE754/1006
QNH:(hPa/inHg/mmHg)1034 / 30.53 / 776
QFE:(hPa/inHg/mmHg)1006 / 29.70 / 754
Temperature2
Dew Point-16
Visibility> 10000
WeatherCAVOK
Cloud Cover
Transition Altitude4000 ft.
Transition LevelFL50
SQUAWK